Time;durP1;ratioP1;P1;durP2;ratioP2;P2;SDS_P1;SDS_P2;PMS_P1;PMS_P2;Temp;Humidity;BMP_temperature;BMP_pressure;BME280_temperature;BME280_humidity;BME280_pressure;Samples;Min_cycle;Max_cycle;Signal;HPM_P1;HPM_P2
2024/01/20 00:01:16;;;;;;;12.77;4.80;;;;;;;;;;4929105;29;20414;-80
2024/01/20 00:03:44;;;;;;;18.60;5.80;;;;;;;;;;4944609;29;20039;-78
2024/01/20 00:06:11;;;;;;;16.00;5.22;;;;;;;;;;4928909;29;20127;-79
2024/01/20 00:08:38;;;;;;;10.80;5.63;;;;;;;;;;4929012;29;20031;-80
2024/01/20 00:11:03;;;;;;;15.57;6.17;;;;;;;;;;4961155;29;20046;-79
2024/01/20 00:13:31;;;;;;;16.50;5.50;;;;;;;;;;4943818;29;20059;-80
2024/01/20 00:15:57;;;;;;;17.07;4.90;;;;;;;;;;4943224;29;20094;-79
2024/01/20 00:18:25;;;;;;;17.97;5.17;;;;;;;;;;4962086;29;20486;-80
2024/01/20 00:20:52;;;;;;;14.03;4.23;;;;;;;;;;4926617;29;20069;-80
2024/01/20 00:23:21;;;;;;;11.65;4.88;;;;;;;;;;4945236;29;20035;-78
2024/01/20 00:25:46;;;;;;;14.60;6.13;;;;;;;;;;4944781;29;20611;-79
2024/01/20 00:28:13;;;;;;;16.50;4.63;;;;;;;;;;4943885;29;20043;-79
2024/01/20 00:30:40;;;;;;;13.60;4.97;;;;;;;;;;4959418;29;20067;-79
2024/01/20 00:33:08;;;;;;;14.37;4.90;;;;;;;;;;4949724;28;20085;-79
2024/01/20 00:35:36;;;;;;;10.83;4.67;;;;;;;;;;4963430;28;20474;-80
2024/01/20 00:38:04;;;;;;;19.83;5.13;;;;;;;;;;4931032;28;20062;-79
2024/01/20 00:40:40;;;;;;;14.07;3.67;;;;;;;;;;4979109;28;20046;-80
2024/01/20 00:43:06;;;;;;;15.05;5.47;;;;;;;;;;4962312;28;20146;-79
2024/01/20 00:45:34;;;;;;;19.57;5.13;;;;;;;;;;4947692;28;20441;-80
2024/01/20 00:48:00;;;;;;;14.90;4.93;;;;;;;;;;4961754;28;20039;-79
2024/01/20 00:50:27;;;;;;;15.07;4.77;;;;;;;;;;4930798;28;20088;-79
2024/01/20 00:52:58;;;;;;;13.87;4.63;;;;;;;;;;4947380;28;20121;-80
2024/01/20 00:55:27;;;;;;;10.53;4.33;;;;;;;;;;4939437;28;20082;-79
2024/01/20 00:57:57;;;;;;;11.83;4.07;;;;;;;;;;4959143;28;20098;-79
2024/01/20 01:00:23;;;;;;;11.80;5.30;;;;;;;;;;4980587;28;20041;-78
2024/01/20 01:02:50;;;;;;;12.90;4.27;;;;;;;;;;4982649;28;20058;-78
2024/01/20 01:05:15;;;;;;;13.27;5.13;;;;;;;;;;4964173;28;20585;-79
2024/01/20 01:07:41;;;;;;;14.33;4.53;;;;;;;;;;4961751;28;20080;-78
2024/01/20 01:10:09;;;;;;;13.50;4.93;;;;;;;;;;4972329;28;20053;-80
2024/01/20 01:12:35;;;;;;;17.60;4.63;;;;;;;;;;4967916;28;20045;-79
2024/01/20 01:15:03;;;;;;;19.80;5.13;;;;;;;;;;4966930;28;20129;-79
2024/01/20 01:17:30;;;;;;;14.00;5.03;;;;;;;;;;4950891;28;20123;-79
2024/01/20 01:19:58;;;;;;;9.23;4.43;;;;;;;;;;4950635;28;20065;-79
2024/01/20 01:22:25;;;;;;;16.10;4.50;;;;;;;;;;4950866;28;20646;-79
2024/01/20 01:24:53;;;;;;;12.68;4.22;;;;;;;;;;4966669;28;20043;-79
2024/01/20 01:27:19;;;;;;;10.37;4.50;;;;;;;;;;4951363;28;20047;-79
2024/01/20 01:29:48;;;;;;;8.20;3.67;;;;;;;;;;4951003;28;20066;-79
2024/01/20 01:32:15;;;;;;;18.27;4.50;;;;;;;;;;4950865;28;20089;-79
2024/01/20 01:34:46;;;;;;;9.40;4.03;;;;;;;;;;4966414;28;20057;-79
2024/01/20 01:37:14;;;;;;;10.45;4.55;;;;;;;;;;4950730;28;20050;-79
2024/01/20 01:39:43;;;;;;;9.17;4.20;;;;;;;;;;5000236;28;20046;-79
2024/01/20 01:42:11;;;;;;;14.20;4.60;;;;;;;;;;4953458;28;20034;-79
2024/01/20 01:44:39;;;;;;;12.07;4.70;;;;;;;;;;4983441;28;20025;-81
2024/01/20 01:47:10;;;;;;;15.03;5.23;;;;;;;;;;4982987;28;20049;-79
2024/01/20 01:49:40;;;;;;;10.37;3.60;;;;;;;;;;4967309;28;20050;-79
2024/01/20 01:52:06;;;;;;;15.73;4.97;;;;;;;;;;4965526;28;20058;-79
2024/01/20 01:54:32;;;;;;;13.83;4.13;;;;;;;;;;4956759;28;20145;-78
2024/01/20 01:57:01;;;;;;;11.87;3.53;;;;;;;;;;4965671;28;20070;-80
2024/01/20 01:59:31;;;;;;;13.67;5.63;;;;;;;;;;4949401;28;20034;-79
2024/01/20 02:01:58;;;;;;;10.83;4.00;;;;;;;;;;4964332;28;20121;-79
2024/01/20 02:04:27;;;;;;;10.20;3.90;;;;;;;;;;4948772;28;20045;-79
2024/01/20 02:06:56;;;;;;;8.53;3.50;;;;;;;;;;4965026;28;20030;-79
2024/01/20 02:09:25;;;;;;;9.93;3.60;;;;;;;;;;4964771;28;20037;-79
2024/01/20 02:11:58;;;;;;;14.27;4.47;;;;;;;;;;4966615;28;20054;-78
2024/01/20 02:14:28;;;;;;;11.57;4.40;;;;;;;;;;4988791;28;20030;-79
2024/01/20 02:16:54;;;;;;;9.02;3.58;;;;;;;;;;4971466;28;20083;-80
2024/01/20 02:19:20;;;;;;;13.83;3.90;;;;;;;;;;4986785;28;20030;-79
2024/01/20 02:21:45;;;;;;;9.53;3.53;;;;;;;;;;4935172;28;20042;-79
2024/01/20 02:24:12;;;;;;;16.17;4.97;;;;;;;;;;4963184;28;20088;-78
2024/01/20 02:26:39;;;;;;;8.47;4.07;;;;;;;;;;4948816;28;20039;-78
2024/01/20 02:29:05;;;;;;;10.10;3.60;;;;;;;;;;4980154;28;20109;-79
2024/01/20 02:31:30;;;;;;;13.90;4.50;;;;;;;;;;4948480;28;20082;-79
2024/01/20 02:33:56;;;;;;;15.33;5.50;;;;;;;;;;4981056;28;20050;-78
2024/01/20 02:36:22;;;;;;;11.77;4.03;;;;;;;;;;4964425;28;20399;-79
2024/01/20 02:38:52;;;;;;;14.10;4.22;;;;;;;;;;4948733;28;20034;-79
2024/01/20 02:41:21;;;;;;;13.98;4.97;;;;;;;;;;4933157;28;20031;-79
2024/01/20 02:43:49;;;;;;;7.82;3.05;;;;;;;;;;4947802;28;20058;-78
2024/01/20 02:46:15;;;;;;;14.60;4.10;;;;;;;;;;4948608;28;20042;-79
2024/01/20 02:48:44;;;;;;;12.70;3.80;;;;;;;;;;4948499;28;20046;-79
2024/01/20 02:51:11;;;;;;;8.85;4.07;;;;;;;;;;4964352;28;20043;-79
2024/01/20 02:53:41;;;;;;;9.50;3.17;;;;;;;;;;4981644;28;20031;-79
2024/01/20 02:56:11;;;;;;;10.95;3.78;;;;;;;;;;4947393;28;20039;-79
2024/01/20 02:58:37;;;;;;;10.80;3.83;;;;;;;;;;4964328;28;20031;-80
2024/01/20 03:01:05;;;;;;;8.10;3.43;;;;;;;;;;4931976;28;20038;-79
2024/01/20 03:03:30;;;;;;;11.23;4.35;;;;;;;;;;4963721;28;20026;-79
2024/01/20 03:05:56;;;;;;;13.20;4.43;;;;;;;;;;4963494;28;20105;-80
2024/01/20 03:08:24;;;;;;;11.67;3.97;;;;;;;;;;4948345;28;20039;-79
2024/01/20 03:10:52;;;;;;;11.33;4.27;;;;;;;;;;4964096;28;20047;-79
2024/01/20 03:13:22;;;;;;;11.27;4.40;;;;;;;;;;4981511;28;20088;-79
2024/01/20 03:15:47;;;;;;;14.07;4.70;;;;;;;;;;4947927;28;20110;-80
2024/01/20 03:18:18;;;;;;;13.07;3.97;;;;;;;;;;4964196;28;20037;-78
2024/01/20 03:20:43;;;;;;;11.97;3.70;;;;;;;;;;4964581;28;20027;-79
2024/01/20 03:23:11;;;;;;;11.30;4.57;;;;;;;;;;4962896;28;20494;-79
2024/01/20 03:25:38;;;;;;;10.65;4.32;;;;;;;;;;4963234;28;20034;-78
2024/01/20 03:28:04;;;;;;;10.90;3.50;;;;;;;;;;4947715;28;20043;-79
2024/01/20 03:30:30;;;;;;;14.23;4.27;;;;;;;;;;4932192;28;20072;-79
2024/01/20 03:32:57;;;;;;;8.27;3.30;;;;;;;;;;4947985;28;20038;-78
2024/01/20 03:35:25;;;;;;;9.57;4.53;;;;;;;;;;4948057;28;20031;-80
2024/01/20 03:37:51;;;;;;;8.40;3.90;;;;;;;;;;4964968;28;20042;-80
2024/01/20 03:40:17;;;;;;;11.63;3.73;;;;;;;;;;4965457;28;20023;-79
2024/01/20 03:42:43;;;;;;;12.13;3.70;;;;;;;;;;4937741;28;20125;-80
2024/01/20 03:45:10;;;;;;;10.97;4.07;;;;;;;;;;4938013;28;20133;-78
2024/01/20 03:47:36;;;;;;;14.43;4.20;;;;;;;;;;4953481;28;20030;-80
2024/01/20 03:50:06;;;;;;;10.43;3.88;;;;;;;;;;4968887;28;20042;-79
2024/01/20 03:52:33;;;;;;;12.57;3.65;;;;;;;;;;4967996;28;20043;-79
2024/01/20 03:54:59;;;;;;;13.43;3.70;;;;;;;;;;4981479;28;20034;-76
2024/01/20 03:57:26;;;;;;;12.10;4.17;;;;;;;;;;4963152;28;20045;-79
2024/01/20 03:59:54;;;;;;;14.67;5.10;;;;;;;;;;4946190;28;20397;-80
2024/01/20 04:02:19;;;;;;;14.13;4.33;;;;;;;;;;4945511;28;20038;-78
2024/01/20 04:04:46;;;;;;;12.57;4.10;;;;;;;;;;4976512;28;20031;-79
2024/01/20 04:07:12;;;;;;;10.67;4.47;;;;;;;;;;4943028;28;20437;-80
2024/01/20 04:09:40;;;;;;;11.60;3.30;;;;;;;;;;4944550;28;20034;-79
2024/01/20 04:12:06;;;;;;;15.90;3.90;;;;;;;;;;4944235;28;20030;-79
2024/01/20 04:14:33;;;;;;;16.13;4.93;;;;;;;;;;4960179;28;20037;-79
2024/01/20 04:17:00;;;;;;;17.57;5.20;;;;;;;;;;4961097;28;20022;-79
2024/01/20 04:19:27;;;;;;;11.57;4.27;;;;;;;;;;4960994;28;20402;-79
2024/01/20 04:21:53;;;;;;;10.20;4.53;;;;;;;;;;4960176;28;20050;-79
2024/01/20 04:24:20;;;;;;;15.30;4.37;;;;;;;;;;4960508;28;20509;-79
2024/01/20 04:26:45;;;;;;;12.97;4.37;;;;;;;;;;4963527;28;20499;-79
2024/01/20 04:29:13;;;;;;;11.17;4.57;;;;;;;;;;4966951;28;20027;-79
2024/01/20 04:31:44;;;;;;;7.10;3.10;;;;;;;;;;4946775;28;20049;-79
2024/01/20 04:34:10;;;;;;;11.17;3.77;;;;;;;;;;4967312;28;20073;-79
2024/01/20 04:39:27;;;;;;;9.93;3.60;;;;;;;;;;5003465;28;20082;-79
2024/01/20 04:41:52;;;;;;;10.03;3.23;;;;;;;;;;4986745;28;20046;-79
2024/01/20 04:44:18;;;;;;;12.77;4.20;;;;;;;;;;4970622;28;20042;-78
2024/01/20 04:46:47;;;;;;;;;;;;;;;;;;4955145;28;20019;-78
2024/01/20 04:49:13;;;;;;;11.43;3.80;;;;;;;;;;4964754;28;20010;-79
2024/01/20 04:51:40;;;;;;;12.27;3.87;;;;;;;;;;4975406;28;20043;-79
2024/01/20 04:54:06;;;;;;;13.03;4.17;;;;;;;;;;4952901;28;20039;-79
2024/01/20 04:56:32;;;;;;;13.00;4.40;;;;;;;;;;4966288;28;20045;-80
2024/01/20 04:58:58;;;;;;;11.20;3.47;;;;;;;;;;4962108;28;20033;-78
2024/01/20 05:01:23;;;;;;;7.87;3.47;;;;;;;;;;4946042;28;20039;-79
2024/01/20 05:03:49;;;;;;;6.97;2.73;;;;;;;;;;4963238;28;20371;-79
2024/01/20 05:06:15;;;;;;;10.90;4.07;;;;;;;;;;4947630;28;20038;-79
2024/01/20 05:08:40;;;;;;;10.73;4.93;;;;;;;;;;4963837;28;20038;-78
2024/01/20 05:11:10;;;;;;;13.90;3.83;;;;;;;;;;4981110;28;20034;-78
2024/01/20 05:13:35;;;;;;;10.10;2.87;;;;;;;;;;4947056;28;20042;-79
2024/01/20 05:16:02;;;;;;;6.50;2.63;;;;;;;;;;4979747;28;20038;-79
2024/01/20 05:18:29;;;;;;;11.40;3.60;;;;;;;;;;4931536;28;20097;-78
2024/01/20 05:20:55;;;;;;;8.03;2.73;;;;;;;;;;4946669;28;20070;-80
2024/01/20 05:23:21;;;;;;;10.90;3.50;;;;;;;;;;4978966;28;20039;-79
2024/01/20 05:25:47;;;;;;;9.80;3.67;;;;;;;;;;4980290;28;20066;-78
2024/01/20 05:28:13;;;;;;;9.53;4.50;;;;;;;;;;4946991;28;20031;-80
2024/01/20 05:30:39;;;;;;;7.73;2.73;;;;;;;;;;4981377;28;20508;-78
2024/01/20 05:33:04;;;;;;;10.13;3.40;;;;;;;;;;4948736;28;20058;-79
2024/01/20 05:35:30;;;;;;;12.37;3.00;;;;;;;;;;4964575;28;20034;-78
2024/01/20 05:37:56;;;;;;;11.43;2.97;;;;;;;;;;4962994;28;20023;-77
2024/01/20 05:40:27;;;;;;;7.93;3.10;;;;;;;;;;4965021;28;20034;-79
2024/01/20 05:42:52;;;;;;;7.73;3.43;;;;;;;;;;4963174;28;20081;-79
2024/01/20 05:45:18;;;;;;;9.13;3.27;;;;;;;;;;4961769;28;20099;-79
2024/01/20 05:47:43;;;;;;;10.37;2.73;;;;;;;;;;4979963;28;20027;-79
2024/01/20 05:50:09;;;;;;;6.43;2.83;;;;;;;;;;4930694;28;20039;-79
2024/01/20 05:52:37;;;;;;;8.00;3.90;;;;;;;;;;4947413;28;20050;-77
2024/01/20 05:55:05;;;;;;;8.87;3.67;;;;;;;;;;4962514;28;20035;-78
2024/01/20 05:57:36;;;;;;;5.82;2.83;;;;;;;;;;4946881;28;20106;-78
2024/01/20 06:00:03;;;;;;;6.13;2.07;;;;;;;;;;4946964;28;20035;-79
2024/01/20 06:02:51;;;;;;;10.43;2.80;;;;;;;;;;4924191;29;20514;-79
2024/01/20 06:05:18;;;;;;;8.57;3.40;;;;;;;;;;4922674;29;20035;-79
2024/01/20 06:07:44;;;;;;;10.23;3.13;;;;;;;;;;4924367;29;20043;-78
2024/01/20 06:10:10;;;;;;;12.87;3.47;;;;;;;;;;4907415;29;20158;-79
2024/01/20 06:12:37;;;;;;;8.33;3.17;;;;;;;;;;4892579;29;20083;-79
2024/01/20 06:15:03;;;;;;;7.63;3.40;;;;;;;;;;4891541;29;20040;-79
2024/01/20 06:17:30;;;;;;;8.07;2.97;;;;;;;;;;4923961;29;20027;-79
2024/01/20 06:19:57;;;;;;;8.20;3.78;;;;;;;;;;4924042;29;20058;-79
2024/01/20 06:22:23;;;;;;;8.03;2.60;;;;;;;;;;4907221;29;20039;-79
2024/01/20 06:24:49;;;;;;;10.00;3.20;;;;;;;;;;4907249;29;20035;-78
2024/01/20 06:27:15;;;;;;;11.37;3.57;;;;;;;;;;4923135;29;20043;-79
2024/01/20 06:29:41;;;;;;;9.10;3.40;;;;;;;;;;4892557;29;20050;-79
2024/01/20 06:32:10;;;;;;;10.47;3.10;;;;;;;;;;4909050;29;20028;-78
2024/01/20 06:34:37;;;;;;;6.33;2.43;;;;;;;;;;4909378;29;20036;-80
2024/01/20 06:37:02;;;;;;;11.43;2.87;;;;;;;;;;4923566;29;20072;-79
2024/01/20 06:39:28;;;;;;;9.17;3.30;;;;;;;;;;4929990;28;20031;-78
2024/01/20 06:41:56;;;;;;;6.57;3.00;;;;;;;;;;4947623;28;20070;-78
2024/01/20 06:44:23;;;;;;;8.47;2.73;;;;;;;;;;4962991;28;20092;-80
2024/01/20 06:46:49;;;;;;;9.50;2.70;;;;;;;;;;4930881;28;20044;-79
2024/01/20 06:49:16;;;;;;;10.13;2.93;;;;;;;;;;4946875;28;20399;-79
2024/01/20 06:51:44;;;;;;;9.30;2.73;;;;;;;;;;4962036;28;20042;-79
2024/01/20 06:54:10;;;;;;;8.07;2.70;;;;;;;;;;4958187;28;20027;-79
2024/01/20 06:56:36;;;;;;;7.10;3.13;;;;;;;;;;4976070;28;20027;-79
2024/01/20 06:59:02;;;;;;;6.73;2.67;;;;;;;;;;4958663;28;20033;-78
2024/01/20 07:01:28;;;;;;;11.07;3.23;;;;;;;;;;4943175;28;20027;-79
2024/01/20 07:03:53;;;;;;;11.07;3.03;;;;;;;;;;4942292;28;20035;-79
2024/01/20 07:06:23;;;;;;;10.57;3.27;;;;;;;;;;4958759;28;20041;-77
2024/01/20 07:08:49;;;;;;;10.93;3.17;;;;;;;;;;4958911;28;20035;-79
2024/01/20 07:11:14;;;;;;;10.20;3.13;;;;;;;;;;4958960;28;20050;-79
2024/01/20 07:13:40;;;;;;;7.27;2.67;;;;;;;;;;4959858;28;20090;-79
2024/01/20 07:16:15;;;;;;;8.43;2.70;;;;;;;;;;4959870;28;20042;-79
2024/01/20 07:18:42;;;;;;;7.63;2.63;;;;;;;;;;4975827;28;20031;-79
2024/01/20 07:21:08;;;;;;;9.03;3.40;;;;;;;;;;4958421;28;20513;-79
2024/01/20 07:23:33;;;;;;;8.97;2.83;;;;;;;;;;4975536;28;20050;-79
2024/01/20 07:25:59;;;;;;;7.67;3.00;;;;;;;;;;4974923;28;20031;-79
2024/01/20 07:28:27;;;;;;;7.17;2.70;;;;;;;;;;4943116;28;20047;-78
2024/01/20 07:30:56;;;;;;;5.13;2.80;;;;;;;;;;4956815;28;20022;-79
2024/01/20 07:33:22;;;;;;;9.23;3.00;;;;;;;;;;4980652;28;20057;-79
2024/01/20 07:35:48;;;;;;;10.27;3.83;;;;;;;;;;4964490;28;20037;-79
2024/01/20 07:38:14;;;;;;;10.43;3.90;;;;;;;;;;4965679;28;20023;-79
2024/01/20 07:40:41;;;;;;;7.33;3.90;;;;;;;;;;4983634;28;20026;-79
2024/01/20 07:43:06;;;;;;;9.47;3.00;;;;;;;;;;4999012;28;20039;-79
2024/01/20 07:45:32;;;;;;;11.90;3.30;;;;;;;;;;4980581;28;20031;-79
2024/01/20 07:48:01;;;;;;;12.37;3.13;;;;;;;;;;4961477;28;20042;-79
2024/01/20 07:50:27;;;;;;;15.73;3.40;;;;;;;;;;4959324;28;20050;-79
2024/01/20 07:52:53;;;;;;;12.43;4.00;;;;;;;;;;4959453;28;20478;-79
2024/01/20 07:55:18;;;;;;;6.67;3.03;;;;;;;;;;4975454;28;20033;-79
2024/01/20 07:57:47;;;;;;;13.07;3.60;;;;;;;;;;4975986;28;20031;-79
2024/01/20 08:00:13;;;;;;;14.07;3.97;;;;;;;;;;4958698;28;20027;-80
2024/01/20 08:02:39;;;;;;;11.20;3.47;;;;;;;;;;4958191;28;20135;-79
2024/01/20 08:05:08;;;;;;;7.30;3.27;;;;;;;;;;4942085;28;20497;-79
2024/01/20 08:07:34;;;;;;;7.75;3.25;;;;;;;;;;4941842;28;20034;-79
2024/01/20 08:10:02;;;;;;;8.17;3.50;;;;;;;;;;4941857;28;20042;-79
2024/01/20 08:12:30;;;;;;;9.57;3.07;;;;;;;;;;4974411;28;20034;-80
2024/01/20 08:14:56;;;;;;;11.18;3.33;;;;;;;;;;4958170;28;20073;-78
2024/01/20 08:17:22;;;;;;;11.90;3.23;;;;;;;;;;4958083;28;20066;-78
2024/01/20 08:19:51;;;;;;;10.27;3.10;;;;;;;;;;4942108;28;20118;-78
2024/01/20 08:22:19;;;;;;;8.68;3.08;;;;;;;;;;4958944;28;20070;-79
2024/01/20 08:24:52;;;;;;;11.90;4.50;;;;;;;;;;4951637;23;20074;-80
2024/01/20 08:27:18;;;;;;;6.97;3.53;;;;;;;;;;4924346;29;20042;-80
2024/01/20 08:29:43;;;;;;;9.20;3.57;;;;;;;;;;4907504;29;20031;-81
2024/01/20 08:32:09;;;;;;;10.43;4.03;;;;;;;;;;4922411;29;20094;-80
2024/01/20 08:34:34;;;;;;;10.57;3.50;;;;;;;;;;4922118;29;20495;-81
2024/01/20 08:37:00;;;;;;;7.87;3.23;;;;;;;;;;4906752;29;20371;-81
2024/01/20 08:39:28;;;;;;;11.77;3.25;;;;;;;;;;4922289;29;20035;-80
2024/01/20 08:41:55;;;;;;;9.37;3.87;;;;;;;;;;4922464;29;20101;-81
2024/01/20 08:44:20;;;;;;;12.93;3.87;;;;;;;;;;4906855;29;20414;-80
2024/01/20 08:46:47;;;;;;;11.43;3.30;;;;;;;;;;4937443;29;20042;-81
2024/01/20 08:49:13;;;;;;;13.10;3.43;;;;;;;;;;4922215;29;20114;-80
2024/01/20 08:51:39;;;;;;;9.37;3.57;;;;;;;;;;4923179;29;20081;-81
2024/01/20 08:54:04;;;;;;;8.33;3.83;;;;;;;;;;4923028;29;20440;-80
2024/01/20 08:56:30;;;;;;;8.97;3.60;;;;;;;;;;4923016;29;20403;-80
2024/01/20 08:58:56;;;;;;;7.93;3.97;;;;;;;;;;4922651;29;20422;-80
2024/01/20 09:01:22;;;;;;;6.67;2.90;;;;;;;;;;4922491;29;20043;-80
2024/01/20 09:03:47;;;;;;;6.93;3.50;;;;;;;;;;4908045;29;20553;-80
2024/01/20 09:06:13;;;;;;;10.43;3.83;;;;;;;;;;4907039;29;20112;-80
2024/01/20 09:08:39;;;;;;;8.90;3.20;;;;;;;;;;4923066;29;20125;-81
2024/01/20 09:11:04;;;;;;;9.57;3.67;;;;;;;;;;4907556;29;20407;-80
2024/01/20 09:13:30;;;;;;;8.90;3.30;;;;;;;;;;4907029;29;20051;-80
2024/01/20 09:15:56;;;;;;;6.17;2.93;;;;;;;;;;4907207;29;20031;-80
2024/01/20 09:18:25;;;;;;;11.23;4.33;;;;;;;;;;4906959;29;20619;-80
2024/01/20 09:20:50;;;;;;;9.10;4.30;;;;;;;;;;4924847;29;20399;-80
2024/01/20 09:23:16;;;;;;;7.03;3.20;;;;;;;;;;4909163;29;20031;-80
2024/01/20 09:25:42;;;;;;;8.33;3.40;;;;;;;;;;4909551;29;20561;-80
2024/01/20 09:28:08;;;;;;;10.27;3.97;;;;;;;;;;4910171;29;20047;-80
2024/01/20 09:30:35;;;;;;;9.33;3.90;;;;;;;;;;4910671;29;20035;-80
2024/01/20 09:33:04;;;;;;;6.37;3.17;;;;;;;;;;4926552;29;20042;-80
2024/01/20 09:35:31;;;;;;;12.87;4.63;;;;;;;;;;4943056;29;20027;-80
2024/01/20 09:37:56;;;;;;;10.43;3.70;;;;;;;;;;4911911;29;20050;-81
2024/01/20 09:40:23;;;;;;;9.07;3.70;;;;;;;;;;4926201;29;20039;-80
2024/01/20 09:42:48;;;;;;;7.73;4.17;;;;;;;;;;4910193;29;20039;-80
2024/01/20 09:45:14;;;;;;;11.80;3.53;;;;;;;;;;4926425;29;20042;-81
2024/01/20 09:47:43;;;;;;;7.05;3.80;;;;;;;;;;4926704;29;20574;-81
2024/01/20 09:50:08;;;;;;;7.83;3.73;;;;;;;;;;4925826;29;20071;-81
2024/01/20 09:52:38;;;;;;;7.93;3.60;;;;;;;;;;4909927;29;20116;-80
2024/01/20 09:55:17;;;;;;;11.80;4.30;;;;;;;;;;4925440;29;20039;-80
2024/01/20 09:57:42;;;;;;;;;;;;;;;;;;4910510;29;20491;-80
2024/01/20 10:00:08;;;;;;;15.33;3.77;;;;;;;;;;4941147;29;19978;-81
2024/01/20 10:02:40;;;;;;;8.60;3.70;;;;;;;;;;4911014;29;20122;-80
2024/01/20 10:05:08;;;;;;;11.97;3.87;;;;;;;;;;4941043;29;20438;-80
2024/01/20 10:07:34;;;;;;;8.10;3.42;;;;;;;;;;4909410;29;20039;-80
2024/01/20 10:09:59;;;;;;;10.00;3.27;;;;;;;;;;4926034;29;20043;-80
2024/01/20 10:12:25;;;;;;;13.07;3.30;;;;;;;;;;4911218;29;20147;-82
2024/01/20 10:14:51;;;;;;;12.70;4.00;;;;;;;;;;4926054;29;20082;-80
2024/01/20 10:17:16;;;;;;;8.50;3.30;;;;;;;;;;4941550;29;20023;-81
2024/01/20 10:19:42;;;;;;;13.27;4.00;;;;;;;;;;4926039;29;20034;-80
2024/01/20 10:22:07;;;;;;;9.00;3.53;;;;;;;;;;4927628;29;20490;-80
2024/01/20 10:24:33;;;;;;;8.77;4.00;;;;;;;;;;4923604;29;20132;-81
2024/01/20 10:26:59;;;;;;;8.83;4.23;;;;;;;;;;4932003;29;20042;-80
2024/01/20 10:29:25;;;;;;;8.40;3.40;;;;;;;;;;4963516;29;20054;-80
2024/01/20 10:31:50;;;;;;;8.87;3.90;;;;;;;;;;4941145;29;20015;-80
2024/01/20 10:34:16;;;;;;;9.27;3.17;;;;;;;;;;4929999;29;20103;-80
2024/01/20 10:36:44;;;;;;;11.80;4.43;;;;;;;;;;4943932;29;20043;-80
2024/01/20 10:39:12;;;;;;;10.63;3.40;;;;;;;;;;4921041;29;20471;-80
2024/01/20 10:41:40;;;;;;;8.23;3.07;;;;;;;;;;4924589;29;20027;-81
2024/01/20 10:44:06;;;;;;;7.87;3.93;;;;;;;;;;4908324;29;20342;-81
2024/01/20 10:46:34;;;;;;;9.73;4.20;;;;;;;;;;4939713;29;20042;-81
2024/01/20 10:49:02;;;;;;;6.78;3.60;;;;;;;;;;4924641;29;20691;-81
2024/01/20 10:51:28;;;;;;;9.57;4.13;;;;;;;;;;4924343;29;20039;-81
2024/01/20 10:53:54;;;;;;;8.83;3.83;;;;;;;;;;4910358;29;20108;-80
2024/01/20 10:56:20;;;;;;;8.73;4.20;;;;;;;;;;4906134;29;20127;-81
2024/01/20 10:58:51;;;;;;;12.23;3.90;;;;;;;;;;4892617;29;20030;-81
2024/01/20 11:01:17;;;;;;;8.47;4.17;;;;;;;;;;4909366;29;20126;-81
2024/01/20 11:03:43;;;;;;;8.90;4.10;;;;;;;;;;4908931;29;20063;-80
2024/01/20 11:06:21;;;;;;;10.67;3.70;;;;;;;;;;4924655;29;20046;-81
2024/01/20 11:08:51;;;;;;;9.63;3.90;;;;;;;;;;4910346;29;20032;-81
2024/01/20 11:11:19;;;;;;;10.10;4.17;;;;;;;;;;4907097;29;20483;-81
2024/01/20 11:13:47;;;;;;;8.80;3.70;;;;;;;;;;4921443;29;20098;-81
2024/01/20 11:16:22;;;;;;;8.73;3.80;;;;;;;;;;4905529;29;20082;-81
2024/01/20 11:18:47;;;;;;;10.00;4.27;;;;;;;;;;4889454;29;20040;-81
2024/01/20 11:21:15;;;;;;;6.50;3.37;;;;;;;;;;4921123;29;20087;-81
2024/01/20 11:23:44;;;;;;;10.80;5.07;;;;;;;;;;4890184;29;20050;-80
2024/01/20 11:26:09;;;;;;;;;;;;;;;;;;4922221;29;20285;-81
2024/01/20 11:28:35;;;;;;;12.10;4.93;;;;;;;;;;4909063;29;19949;-81
2024/01/20 11:31:01;;;;;;;8.10;3.93;;;;;;;;;;4909323;29;20618;-81
2024/01/20 11:33:26;;;;;;;9.87;4.10;;;;;;;;;;4939854;29;20538;-81
2024/01/20 11:35:53;;;;;;;11.90;4.40;;;;;;;;;;4923748;29;20090;-81
2024/01/20 11:38:21;;;;;;;9.07;4.13;;;;;;;;;;4908162;29;20419;-81
2024/01/20 11:40:58;;;;;;;10.95;4.13;;;;;;;;;;4908710;29;20100;-81
2024/01/20 11:43:24;;;;;;;7.60;3.50;;;;;;;;;;4938466;29;20046;-80
2024/01/20 11:45:50;;;;;;;10.50;4.27;;;;;;;;;;4922905;29;20039;-81
2024/01/20 11:48:18;;;;;;;12.03;4.63;;;;;;;;;;4941142;29;20043;-80
2024/01/20 11:50:45;;;;;;;10.23;4.00;;;;;;;;;;4940844;29;20097;-81
2024/01/20 11:53:11;;;;;;;9.67;3.87;;;;;;;;;;4907648;29;20043;-81
2024/01/20 11:55:36;;;;;;;13.33;4.10;;;;;;;;;;4939941;29;20059;-81
2024/01/20 11:58:02;;;;;;;9.17;4.10;;;;;;;;;;4907481;29;20031;-81
2024/01/20 12:00:27;;;;;;;7.43;3.63;;;;;;;;;;4938888;29;20034;-81
2024/01/20 12:02:54;;;;;;;16.10;4.63;;;;;;;;;;4923603;29;20091;-81
2024/01/20 12:05:20;;;;;;;12.40;3.93;;;;;;;;;;4923313;29;20031;-82
2024/01/20 12:07:46;;;;;;;10.03;4.50;;;;;;;;;;4923224;29;20051;-82
2024/01/20 12:10:15;;;;;;;8.87;3.47;;;;;;;;;;4924353;29;20078;-81
2024/01/20 12:12:44;;;;;;;7.30;3.50;;;;;;;;;;4944315;29;20060;-81
2024/01/20 12:15:10;;;;;;;8.70;4.00;;;;;;;;;;4962549;28;20027;-80
2024/01/20 12:17:36;;;;;;;8.17;3.87;;;;;;;;;;4944966;29;20071;-81
2024/01/20 12:20:02;;;;;;;10.27;4.03;;;;;;;;;;4919882;29;20043;-80
2024/01/20 12:22:30;;;;;;;11.00;3.70;;;;;;;;;;4928218;29;20045;-81
2024/01/20 12:24:59;;;;;;;11.50;4.47;;;;;;;;;;4911572;29;20039;-80
2024/01/20 12:27:26;;;;;;;9.27;3.87;;;;;;;;;;4908979;29;20031;-81
2024/01/20 12:29:52;;;;;;;12.73;3.95;;;;;;;;;;4909319;29;20042;-82
2024/01/20 12:32:19;;;;;;;11.87;3.90;;;;;;;;;;4924032;29;20039;-81
2024/01/20 12:34:44;;;;;;;11.30;4.32;;;;;;;;;;4907912;29;20043;-81
2024/01/20 12:37:10;;;;;;;9.83;4.43;;;;;;;;;;4939411;29;20038;-81
2024/01/20 12:39:37;;;;;;;10.43;4.60;;;;;;;;;;4924280;29;20039;-82
2024/01/20 12:42:04;;;;;;;12.93;4.40;;;;;;;;;;4909534;29;20042;-81
2024/01/20 12:44:30;;;;;;;11.82;4.10;;;;;;;;;;4924152;29;20062;-80
2024/01/20 12:46:56;;;;;;;8.98;4.05;;;;;;;;;;4941447;29;20454;-82
2024/01/20 12:49:27;;;;;;;13.93;4.43;;;;;;;;;;4924658;29;20035;-81
2024/01/20 12:51:53;;;;;;;11.83;4.03;;;;;;;;;;4924073;29;20122;-82
2024/01/20 12:54:19;;;;;;;10.98;4.03;;;;;;;;;;4909002;29;20375;-81
2024/01/20 12:56:44;;;;;;;9.93;3.90;;;;;;;;;;4913471;29;20050;-82
2024/01/20 12:59:20;;;;;;;7.30;3.53;;;;;;;;;;4928351;29;20038;-81
2024/01/20 13:01:45;;;;;;;10.32;3.85;;;;;;;;;;4928536;29;20035;-81
2024/01/20 13:04:11;;;;;;;11.18;4.68;;;;;;;;;;4910418;29;20043;-81
2024/01/20 13:06:37;;;;;;;8.60;3.90;;;;;;;;;;4911194;29;20420;-81
2024/01/20 13:09:02;;;;;;;9.15;3.92;;;;;;;;;;4927474;29;20031;-80
2024/01/20 13:11:29;;;;;;;10.00;4.03;;;;;;;;;;4911625;29;20046;-82
2024/01/20 13:14:02;;;;;;;8.60;3.72;;;;;;;;;;4962914;29;20035;-80
2024/01/20 13:16:29;;;;;;;7.43;3.72;;;;;;;;;;4939213;29;20043;-82
2024/01/20 13:18:58;;;;;;;9.15;3.85;;;;;;;;;;4949425;28;20084;-81
2024/01/20 13:21:24;;;;;;;9.73;4.03;;;;;;;;;;4950057;28;20035;-81
2024/01/20 13:23:49;;;;;;;11.27;4.20;;;;;;;;;;4950181;29;20022;-81
2024/01/20 13:26:15;;;;;;;11.15;4.03;;;;;;;;;;4949183;28;20034;-80
2024/01/20 13:28:41;;;;;;;9.18;3.95;;;;;;;;;;4934264;28;20045;-81
2024/01/20 13:31:07;;;;;;;11.15;4.00;;;;;;;;;;4964119;28;20031;-81
2024/01/20 13:33:34;;;;;;;9.52;4.32;;;;;;;;;;4915579;29;20032;-81
2024/01/20 13:35:59;;;;;;;12.10;4.65;;;;;;;;;;4925856;29;20035;-80
2024/01/20 13:38:26;;;;;;;8.57;4.10;;;;;;;;;;4926741;29;20035;-81
2024/01/20 13:40:51;;;;;;;11.80;4.88;;;;;;;;;;4925900;29;20046;-80
2024/01/20 13:43:17;;;;;;;8.63;4.35;;;;;;;;;;4926363;29;20477;-80
2024/01/20 13:45:42;;;;;;;10.57;4.28;;;;;;;;;;4909118;29;20051;-81
2024/01/20 13:48:08;;;;;;;9.23;4.53;;;;;;;;;;4942692;29;20122;-80
2024/01/20 13:50:33;;;;;;;11.23;4.50;;;;;;;;;;4929771;29;20039;-81
2024/01/20 13:52:59;;;;;;;8.85;3.83;;;;;;;;;;4910607;29;20494;-81
2024/01/20 13:55:25;;;;;;;11.75;4.80;;;;;;;;;;4941515;29;20034;-81
2024/01/20 13:57:51;;;;;;;9.27;4.13;;;;;;;;;;4925851;29;20023;-81
2024/01/20 14:00:18;;;;;;;10.38;4.65;;;;;;;;;;4925563;29;20043;-81
2024/01/20 14:02:46;;;;;;;11.52;5.15;;;;;;;;;;4911336;29;20490;-80
2024/01/20 14:05:15;;;;;;;10.32;4.03;;;;;;;;;;4940824;28;20031;-80
2024/01/20 14:07:41;;;;;;;11.63;4.43;;;;;;;;;;4909313;29;20043;-80
2024/01/20 14:10:07;;;;;;;12.48;4.38;;;;;;;;;;4926996;29;20062;-80
2024/01/20 14:12:35;;;;;;;10.25;4.05;;;;;;;;;;4909624;29;20034;-81
2024/01/20 14:15:01;;;;;;;12.57;5.72;;;;;;;;;;4925631;29;20031;-80
2024/01/20 14:17:28;;;;;;;8.52;3.95;;;;;;;;;;4910875;29;20049;-81
2024/01/20 14:19:54;;;;;;;11.98;4.35;;;;;;;;;;4925474;29;20032;-80
2024/01/20 14:22:22;;;;;;;9.73;4.15;;;;;;;;;;4909468;29;20043;-80
2024/01/20 14:24:48;;;;;;;9.15;4.47;;;;;;;;;;5010429;23;20045;-78
2024/01/20 14:27:14;;;;;;;11.13;4.22;;;;;;;;;;4955443;28;20035;-80
2024/01/20 14:29:40;;;;;;;10.48;5.20;;;;;;;;;;4953969;28;20057;-79
2024/01/20 14:32:07;;;;;;;10.15;4.13;;;;;;;;;;4936949;28;20422;-80
2024/01/20 14:34:32;;;;;;;10.55;4.55;;;;;;;;;;4937408;29;20039;-81
2024/01/20 14:36:59;;;;;;;11.35;5.00;;;;;;;;;;4934474;29;20400;-81